Portada
METAR-TAF:

METAR-TAF

Aeroports :

Braunschweig, Alemanya

latitud: 52-18N, longitud: 010-27E, altitud: 81 m

Observació

L'informe es va fer fa 2 hores i 34 minuts, a les 23:50 UTC
Vent 1 kt del Est/Sud-Est
Temperatura 9°C
Humitat 87%
Pressió 1034 hPa
Visibilitat 10 km o més
sense núvols per sota de 1500 mi sense presència de cumulonimbus.

METAR: EDVE 262350Z 11001KT CAVOK 09/07 Q1034

Hora: 04:24 (02:24 UTC)

Pronòstic

L'informe es va fer fa 9 hores i 24 minuts, a les 17:00 UTC
Pronòstic vàlid del 26 a les 18 UTC al 26 a les 21 UTC
Vent 3 kt amb direcció variable
Visibilitat 10 km o més
Escasses núvols a una alçada de 4500 ft

TAF: EDVE 261700Z 2618/2621 VRB03KT 9999 FEW045

Observacions i pronòstics meteorològics de més de 4000 aeroports (METAR i TAF).

Les estacions disponibles són els punts grocs i vermells al mapa.

Posi el ratolí al punt desitjat per veure el nom de l'estació.

Feu clic per veure les observacions i els pronòstics meteorològics.

Per canviar el mapa: feu clic els botons verds amb una creu de color negre per apropar; al botó verd amb un guió per allunyar la imatge; o en les fletxes verdes per a mapes adjacents.


METAR-TAF: